Time;durP1;ratioP1;P1;durP2;ratioP2;P2;SDS_P1;SDS_P2;PMS_P1;PMS_P2;Temp;Humidity;BMP_temperature;BMP_pressure;BME280_temperature;BME280_humidity;BME280_pressure;Samples;Min_cycle;Max_cycle;Signal;HPM_P1;HPM_P2
2024/01/14 00:01:20;;;;;;;134.07;74.88;;;;;;;0.82;100.00;101601.03;5123120;27;20088;-78
2024/01/14 00:03:45;;;;;;;135.45;74.82;;;;;;;0.83;100.00;101593.22;5119798;27;20027;-78
2024/01/14 00:06:11;;;;;;;133.85;75.03;;;;;;;0.84;100.00;101594.06;5117163;27;20437;-78
2024/01/14 00:08:36;;;;;;;141.98;74.78;;;;;;;0.83;100.00;101585.44;5125335;27;20390;-78
2024/01/14 00:11:02;;;;;;;142.25;75.82;;;;;;;0.86;100.00;101594.91;5113957;27;20067;-78
2024/01/14 00:13:27;;;;;;;136.80;73.43;;;;;;;0.84;100.00;101597.53;5109580;27;20084;-78
2024/01/14 00:15:53;;;;;;;140.52;73.45;;;;;;;0.85;100.00;101590.59;5109428;27;20071;-79
2024/01/14 00:18:18;;;;;;;133.80;74.03;;;;;;;0.85;100.00;101581.09;5106764;27;20018;-78
2024/01/14 00:20:43;;;;;;;144.13;75.30;;;;;;;0.83;100.00;101579.41;5126189;27;20039;-78
2024/01/14 00:23:09;;;;;;;139.30;73.97;;;;;;;0.83;100.00;101576.84;5122050;27;20656;-79
2024/01/14 00:25:34;;;;;;;133.15;72.55;;;;;;;0.82;100.00;101575.97;5118292;27;20028;-78
2024/01/14 00:27:59;;;;;;;138.27;73.25;;;;;;;0.84;100.00;101576.78;5115293;27;20031;-78
2024/01/14 00:30:25;;;;;;;136.90;74.00;;;;;;;0.83;100.00;101572.50;5119029;27;20025;-78
2024/01/14 00:32:50;;;;;;;139.48;70.80;;;;;;;0.85;100.00;101577.66;5125654;27;20023;-78
2024/01/14 00:35:15;;;;;;;136.80;72.30;;;;;;;0.85;100.00;101564.69;5123511;27;20023;-86
2024/01/14 00:37:41;;;;;;;136.50;74.03;;;;;;;0.85;100.00;101562.97;5126066;27;20027;-85
2024/01/14 00:40:08;;;;;;;144.45;73.60;;;;;;;0.86;100.00;101566.41;5125863;27;20657;-85
2024/01/14 00:42:33;;;;;;;139.77;72.07;;;;;;;0.86;100.00;101556.03;5118515;27;20031;-86
2024/01/14 00:44:58;;;;;;;137.45;72.55;;;;;;;0.87;100.00;101557.75;5114516;27;20103;-85
2024/01/14 00:47:24;;;;;;;131.32;71.55;;;;;;;0.89;100.00;101545.59;5127586;27;20025;-85
2024/01/14 00:49:49;;;;;;;133.25;71.43;;;;;;;0.87;100.00;101547.38;5124163;27;20626;-84
2024/01/14 00:52:15;;;;;;;133.80;70.82;;;;;;;0.87;100.00;101549.97;5124338;27;20027;-86
2024/01/14 00:54:40;;;;;;;135.48;70.05;;;;;;;0.88;100.00;101543.91;5121856;27;20050;-85
2024/01/14 00:57:07;;;;;;;132.32;69.68;;;;;;;0.91;100.00;101549.00;5111202;27;20019;-85
2024/01/14 00:59:33;;;;;;;133.32;70.97;;;;;;;0.90;100.00;101542.97;5118647;27;20028;-86
2024/01/14 01:01:58;;;;;;;128.77;69.03;;;;;;;0.91;100.00;101554.19;5108779;28;20540;-85
2024/01/14 01:04:24;;;;;;;129.27;69.15;;;;;;;0.92;100.00;101546.38;5120284;27;20102;-86
2024/01/14 01:06:49;;;;;;;129.40;71.10;;;;;;;0.92;100.00;101537.75;5106930;28;20479;-85
2024/01/14 01:09:15;;;;;;;127.28;68.85;;;;;;;0.94;100.00;101538.56;5129881;27;20072;-86
2024/01/14 01:11:40;;;;;;;128.57;68.80;;;;;;;0.92;100.00;101535.16;5106995;28;20146;-86
2024/01/14 01:14:06;;;;;;;129.02;69.72;;;;;;;0.94;100.00;101529.06;5093738;28;20027;-86
2024/01/14 01:16:31;;;;;;;130.55;69.25;;;;;;;0.94;100.00;101517.84;5094531;28;20026;-86
2024/01/14 01:18:56;;;;;;;126.80;68.70;;;;;;;0.94;100.00;101525.63;5098470;28;20066;-86
2024/01/14 01:21:22;;;;;;;126.78;69.80;;;;;;;0.92;100.00;101524.81;5104290;28;20052;-86
2024/01/14 01:23:48;;;;;;;129.93;69.88;;;;;;;0.94;100.00;101525.63;5095086;28;20444;-86
2024/01/14 01:26:14;;;;;;;127.68;70.53;;;;;;;0.96;100.00;101510.03;5088140;28;20031;-86
2024/01/14 01:28:39;;;;;;;125.50;69.22;;;;;;;0.96;100.00;101508.31;5099162;28;20038;-86
2024/01/14 01:31:05;;;;;;;129.02;69.95;;;;;;;0.96;100.00;101516.06;5106286;28;20032;-86
2024/01/14 01:33:30;;;;;;;128.38;69.85;;;;;;;0.97;100.00;101512.59;5105033;28;20063;-86
2024/01/14 01:35:55;;;;;;;125.13;69.13;;;;;;;0.97;100.00;101515.19;5099179;28;20063;-86
2024/01/14 01:38:21;;;;;;;122.10;68.35;;;;;;;0.96;100.00;101510.91;5105048;28;20435;-86
2024/01/14 01:40:47;;;;;;;130.75;70.78;;;;;;;0.96;100.00;101510.91;5104977;28;20531;-86
2024/01/14 01:43:13;;;;;;;123.25;69.47;;;;;;;0.97;100.00;101512.59;5095991;28;20550;-86
2024/01/14 01:45:38;;;;;;;128.18;71.32;;;;;;;0.98;100.00;101503.94;5097757;28;20019;-86
2024/01/14 01:48:04;;;;;;;129.48;70.05;;;;;;;0.97;100.00;101509.16;5113649;27;20028;-86
2024/01/14 01:50:32;;;;;;;128.20;71.05;;;;;;;0.96;100.00;101500.53;5110405;28;20038;-86
2024/01/14 01:52:58;;;;;;;128.70;70.43;;;;;;;0.96;100.00;101510.91;5098449;28;20502;-86
2024/01/14 01:55:24;;;;;;;127.68;69.25;;;;;;;0.95;100.00;101509.19;5112142;27;20032;-86
2024/01/14 01:57:50;;;;;;;125.95;67.93;;;;;;;0.97;100.00;101506.56;5111299;28;20080;-86
2024/01/14 02:00:16;;;;;;;120.10;69.03;;;;;;;0.95;100.00;101509.19;5109371;28;20085;-86
2024/01/14 02:02:44;;;;;;;126.15;69.53;;;;;;;0.94;100.00;101500.56;5109341;28;20047;-86
2024/01/14 02:05:10;;;;;;;126.45;67.75;;;;;;;0.93;100.00;101490.25;5101766;28;20028;-86
2024/01/14 02:07:36;;;;;;;125.00;67.95;;;;;;;0.94;100.00;101497.13;5099717;28;20043;-86
2024/01/14 02:10:02;;;;;;;126.20;69.22;;;;;;;0.92;100.00;101491.13;5112703;28;20558;-86
2024/01/14 02:12:27;;;;;;;125.82;69.93;;;;;;;0.89;100.00;101484.28;5133882;27;20029;-86
2024/01/14 02:14:53;;;;;;;121.97;67.88;;;;;;;0.90;100.00;101485.13;5099572;27;20507;-86
2024/01/14 02:17:18;;;;;;;121.15;68.30;;;;;;;0.88;100.00;101485.19;5102058;28;20032;-86
2024/01/14 02:19:43;;;;;;;125.78;69.35;;;;;;;0.87;100.00;101485.22;5112129;28;20032;-86
2024/01/14 02:22:13;;;;;;;118.60;66.75;;;;;;;0.91;100.00;101487.69;5096987;28;20032;-86
2024/01/14 02:24:39;;;;;;;120.35;67.75;;;;;;;0.94;100.00;101486.75;5093942;28;20525;-86
2024/01/14 02:27:05;;;;;;;123.90;68.40;;;;;;;0.94;100.00;101486.75;5094589;28;20023;-86
2024/01/14 02:29:31;;;;;;;123.85;69.85;;;;;;;0.90;100.00;101486.00;5093191;28;20019;-86
2024/01/14 02:31:56;;;;;;;120.55;67.93;;;;;;;0.90;100.00;101485.13;5110632;28;20248;-85
2024/01/14 02:34:23;;;;;;;127.93;69.05;;;;;;;0.90;100.00;101478.22;5106655;28;20051;-86
2024/01/14 02:36:48;;;;;;;123.20;68.78;;;;;;;0.89;100.00;101478.25;5107574;28;20027;-85
2024/01/14 02:39:16;;;;;;;121.05;69.63;;;;;;;0.90;100.00;101477.38;5108622;27;20027;-86
2024/01/14 02:41:42;;;;;;;125.38;69.93;;;;;;;0.88;100.00;101468.78;5099958;28;20462;-86
2024/01/14 02:44:07;;;;;;;124.85;69.38;;;;;;;0.91;100.00;101461.78;5110149;28;20201;-86
2024/01/14 02:46:33;;;;;;;125.78;68.28;;;;;;;0.92;100.00;101463.50;5108544;28;20042;-86
2024/01/14 02:48:58;;;;;;;128.80;71.30;;;;;;;0.90;100.00;101459.22;5107605;28;20028;-85
2024/01/14 02:51:23;;;;;;;136.70;71.97;;;;;;;0.87;100.00;101442.03;5103949;28;20034;-86
2024/01/14 02:53:49;;;;;;;128.70;70.32;;;;;;;0.87;100.00;101436.84;5102130;28;20038;-86
2024/01/14 02:56:14;;;;;;;125.57;69.85;;;;;;;0.85;100.00;101432.59;5106819;28;20028;-85
2024/01/14 02:58:40;;;;;;;116.88;68.70;;;;;;;0.80;100.00;101431.81;5096356;28;20028;-86
2024/01/14 03:01:06;;;;;;;118.90;66.57;;;;;;;0.74;100.00;101437.16;5095663;28;20499;-86
2024/01/14 03:03:31;;;;;;;110.20;64.80;;;;;;;0.70;100.00;101426.03;5106676;28;20019;-85
2024/01/14 03:05:57;;;;;;;112.45;65.55;;;;;;;0.70;100.00;101425.19;5096802;28;20475;-85
2024/01/14 03:08:23;;;;;;;106.45;63.58;;;;;;;0.69;100.00;101424.31;5108412;27;20024;-85
2024/01/14 03:10:48;;;;;;;108.85;63.20;;;;;;;0.68;100.00;101424.38;5107964;27;20035;-85
2024/01/14 03:13:15;;;;;;;110.70;65.97;;;;;;;0.69;100.00;101418.31;5128320;27;20038;-85
2024/01/14 03:15:41;;;;;;;116.25;66.75;;;;;;;0.71;100.00;101408.75;5126670;27;20015;-86
2024/01/14 03:18:07;;;;;;;111.75;66.90;;;;;;;0.69;100.00;101413.13;5126742;27;20030;-86
2024/01/14 03:20:32;;;;;;;115.97;66.88;;;;;;;0.70;100.00;101407.06;5119284;27;20046;-85
2024/01/14 03:22:58;;;;;;;114.13;65.35;;;;;;;0.68;100.00;101401.06;5123946;27;20031;-85
2024/01/14 03:25:23;;;;;;;116.00;65.97;;;;;;;0.67;100.00;101399.34;5130013;27;20031;-86
2024/01/14 03:27:49;;;;;;;115.97;66.20;;;;;;;0.67;100.00;101399.34;5124300;27;20051;-85
2024/01/14 03:30:14;;;;;;;112.57;64.53;;;;;;;0.66;100.00;101397.66;5126280;27;20016;-85
2024/01/14 03:32:40;;;;;;;110.60;65.50;;;;;;;0.62;100.00;101400.31;5127474;27;20026;-85
2024/01/14 03:35:06;;;;;;;103.85;62.58;;;;;;;0.60;100.00;101391.75;5110194;27;20034;-86
2024/01/14 03:37:31;;;;;;;106.30;61.83;;;;;;;0.56;100.00;101392.72;5130173;27;20109;-85
2024/01/14 03:40:01;;;;;;;107.10;63.30;;;;;;;0.54;100.00;101389.31;5128869;27;20095;-78
2024/01/14 03:42:26;;;;;;;106.20;60.67;;;;;;;0.53;100.00;101391.94;5109897;27;20071;-78
2024/01/14 03:44:55;;;;;;;103.13;60.83;;;;;;;0.53;100.00;101390.19;5121204;27;20424;-78
2024/01/14 03:47:20;;;;;;;101.13;59.65;;;;;;;0.54;100.00;101383.28;5128690;27;20065;-77
2024/01/14 03:49:46;;;;;;;100.18;59.78;;;;;;;0.57;100.00;101389.22;5114908;27;20047;-77
2024/01/14 03:52:11;;;;;;;99.95;58.85;;;;;;;0.55;100.00;101384.97;5120921;27;20031;-77
2024/01/14 03:54:37;;;;;;;97.78;58.40;;;;;;;0.56;100.00;101379.75;5127092;27;20027;-77
2024/01/14 03:57:02;;;;;;;98.72;57.63;;;;;;;0.55;100.00;101379.81;5127394;27;20057;-77
2024/01/14 03:59:27;;;;;;;100.53;58.33;;;;;;;0.51;100.00;101378.19;5100850;27;20076;-78
2024/01/14 04:01:53;;;;;;;105.68;60.85;;;;;;;0.53;100.00;101376.41;5105901;27;20387;-77
2024/01/14 04:04:18;;;;;;;106.13;61.00;;;;;;;0.51;100.00;101375.59;5120576;27;20390;-77
2024/01/14 04:06:43;;;;;;;103.22;60.72;;;;;;;0.50;100.00;101366.97;5118299;27;20102;-77
2024/01/14 04:09:10;;;;;;;104.80;61.50;;;;;;;0.53;100.00;101372.06;5110593;27;20475;-77
2024/01/14 04:11:35;;;;;;;104.00;59.90;;;;;;;0.51;100.00;101371.25;5116729;27;20538;-77
2024/01/14 04:14:01;;;;;;;105.38;59.38;;;;;;;0.49;100.00;101367.88;5123509;27;20159;-78
2024/01/14 04:16:26;;;;;;;100.57;59.15;;;;;;;0.46;100.00;101365.34;5129554;27;20030;-77
2024/01/14 04:18:52;;;;;;;99.80;59.10;;;;;;;0.47;100.00;101363.59;5126629;27;20111;-77
2024/01/14 04:21:24;;;;;;;102.82;58.72;;;;;;;0.44;100.00;101361.94;5128303;27;20089;-77
2024/01/14 04:23:50;;;;;;;104.50;60.15;;;;;;;0.46;100.00;101355.00;5105102;27;20033;-78
2024/01/14 04:26:20;;;;;;;96.40;58.80;;;;;;;0.43;100.00;101355.06;5118958;27;20103;-77
2024/01/14 04:28:45;;;;;;;101.78;58.70;;;;;;;0.46;100.00;101359.31;5125139;27;20106;-77
2024/01/14 04:31:11;;;;;;;94.57;57.08;;;;;;;0.47;100.00;101366.19;5106246;27;20448;-85
2024/01/14 04:33:36;;;;;;;100.35;57.28;;;;;;;0.46;100.00;101367.09;5126058;27;20083;-85
2024/01/14 04:36:01;;;;;;;98.95;56.65;;;;;;;0.45;100.00;101355.03;5121922;27;20763;-85
2024/01/14 04:38:30;;;;;;;95.05;55.00;;;;;;;0.45;100.00;101357.63;5127988;27;20426;-85
2024/01/14 04:40:55;;;;;;;89.85;54.55;;;;;;;0.45;100.00;101357.63;5127666;27;20062;-85
2024/01/14 04:43:21;;;;;;;93.00;54.70;;;;;;;0.41;100.00;101349.09;5125811;27;20933;-85
2024/01/14 04:45:46;;;;;;;88.47;53.65;;;;;;;0.41;100.00;101349.09;5100293;27;20019;-85
2024/01/14 04:48:12;;;;;;;84.25;51.58;;;;;;;0.39;100.00;101343.06;5123799;27;20051;-85
2024/01/14 04:50:39;;;;;;;87.88;52.40;;;;;;;0.39;100.00;101342.22;5121553;27;20026;-85
2024/01/14 04:53:05;;;;;;;78.82;48.88;;;;;;;0.40;100.00;101342.22;5125423;27;20079;-85
2024/01/14 04:55:31;;;;;;;80.68;48.38;;;;;;;0.38;100.00;101341.34;5115682;27;20032;-78
2024/01/14 04:57:57;;;;;;;75.65;47.20;;;;;;;0.39;100.00;101331.84;5120492;27;20401;-86
2024/01/14 05:00:22;;;;;;;73.55;46.40;;;;;;;0.36;100.00;101332.78;5127496;27;20027;-78
2024/01/14 05:02:50;;;;;;;72.03;45.50;;;;;;;0.37;100.00;101339.66;5110118;27;20031;-78
2024/01/14 05:05:16;;;;;;;74.47;46.40;;;;;;;0.35;100.00;101330.22;5121984;27;20123;-77
2024/01/14 05:07:41;;;;;;;70.97;45.00;;;;;;;0.36;100.00;101326.75;5114682;27;20463;-77
2024/01/14 05:10:08;;;;;;;73.10;46.13;;;;;;;0.36;100.00;101325.03;5126230;27;20019;-77
2024/01/14 05:12:33;;;;;;;74.18;46.72;;;;;;;0.34;100.00;101319.03;5126352;27;20435;-77
2024/01/14 05:14:59;;;;;;;71.53;45.28;;;;;;;0.34;100.00;101308.69;5095735;27;20027;-77
2024/01/14 05:17:24;;;;;;;70.63;44.97;;;;;;;0.30;100.00;101304.47;5108747;28;20114;-77
2024/01/14 05:19:51;;;;;;;74.68;46.20;;;;;;;0.28;100.00;101314.84;5122286;27;20088;-77
2024/01/14 05:22:16;;;;;;;73.65;44.88;;;;;;;0.26;100.00;101310.59;5105053;28;20047;-77
2024/01/14 05:24:42;;;;;;;72.97;45.45;;;;;;;0.28;100.00;101298.47;5119075;27;20120;-78
2024/01/14 05:27:08;;;;;;;75.65;46.95;;;;;;;0.27;100.00;101299.38;5118239;27;20030;-78
2024/01/14 05:29:33;;;;;;;76.75;46.72;;;;;;;0.27;100.00;101304.53;5129779;27;20023;-78
2024/01/14 05:31:58;;;;;;;78.63;48.35;;;;;;;0.28;100.00;101303.66;5124908;27;20064;-78
2024/01/14 05:34:24;;;;;;;76.10;47.47;;;;;;;0.22;100.00;101289.13;5127686;27;20019;-78
2024/01/14 05:36:49;;;;;;;80.22;48.45;;;;;;;0.26;100.00;101297.66;5133662;27;20047;-78
2024/01/14 05:39:14;;;;;;;77.65;48.63;;;;;;;0.23;100.00;101289.97;5126197;27;20035;-78
2024/01/14 05:41:40;;;;;;;81.07;48.70;;;;;;;0.25;100.00;101285.63;5127531;27;20101;-86
2024/01/14 05:44:05;;;;;;;80.75;48.75;;;;;;;0.23;100.00;101284.81;5130947;27;20019;-86
2024/01/14 05:46:30;;;;;;;84.68;49.13;;;;;;;0.24;100.00;101281.34;5128624;27;20733;-86
2024/01/14 05:48:56;;;;;;;85.00;51.40;;;;;;;0.22;100.00;101277.94;5120936;27;20078;-85
2024/01/14 05:51:21;;;;;;;88.32;52.25;;;;;;;0.24;100.00;101287.34;5125575;27;20099;-85
2024/01/14 05:53:47;;;;;;;82.97;50.60;;;;;;;0.23;100.00;101284.81;5132968;27;20234;-85
2024/01/14 05:56:12;;;;;;;84.95;50.65;;;;;;;0.23;100.00;101280.50;5110656;27;20143;-86
2024/01/14 05:58:41;;;;;;;85.70;50.05;;;;;;;0.21;100.00;101281.41;5129005;27;20026;-85
2024/01/14 06:01:07;;;;;;;84.75;49.17;;;;;;;0.25;100.00;101272.69;5119602;27;20038;-86
2024/01/14 06:03:32;;;;;;;80.10;49.22;;;;;;;0.25;100.00;101270.09;5134460;27;20031;-85
2024/01/14 06:06:01;;;;;;;81.80;50.35;;;;;;;0.23;100.00;101275.31;5120655;27;20031;-86
2024/01/14 06:08:26;;;;;;;85.05;50.13;;;;;;;0.25;100.00;101262.34;5128311;27;20019;-78
2024/01/14 06:10:52;;;;;;;86.35;50.88;;;;;;;0.22;100.00;101257.25;5117449;27;20063;-85
2024/01/14 06:13:17;;;;;;;82.00;50.47;;;;;;;0.22;100.00;101252.91;5115168;27;20234;-78
2024/01/14 06:15:42;;;;;;;87.82;50.55;;;;;;;0.24;100.00;101251.13;5125338;27;20026;-78
2024/01/14 06:18:08;;;;;;;85.28;49.25;;;;;;;0.23;100.00;101248.59;5129742;27;20483;-78
2024/01/14 06:20:33;;;;;;;82.82;49.53;;;;;;;0.20;100.00;101246.06;5126838;27;20059;-78
2024/01/14 06:22:59;;;;;;;83.05;49.10;;;;;;;0.20;100.00;101248.66;5132716;27;20084;-78
2024/01/14 06:25:24;;;;;;;82.00;49.15;;;;;;;0.20;100.00;101251.25;5135350;27;20034;-78
2024/01/14 06:27:49;;;;;;;83.38;48.03;;;;;;;0.19;100.00;101246.97;5113697;27;20023;-78
2024/01/14 06:30:15;;;;;;;84.07;49.25;;;;;;;0.17;100.00;101243.56;5128379;27;20548;-78
2024/01/14 06:32:40;;;;;;;75.82;46.90;;;;;;;0.18;100.00;101240.94;5115904;27;20079;-78
2024/01/14 06:35:08;;;;;;;79.07;48.50;;;;;;;0.19;100.00;101231.44;5129934;27;20485;-78
2024/01/14 06:37:33;;;;;;;78.30;47.00;;;;;;;0.20;100.00;101230.56;5120545;27;20390;-78
2024/01/14 06:39:58;;;;;;;77.93;47.00;;;;;;;0.14;100.00;101228.97;5111020;27;22152;-78
2024/01/14 06:42:24;;;;;;;79.47;47.90;;;;;;;0.15;100.00;101229.81;5107390;28;20082;-78
2024/01/14 06:44:49;;;;;;;75.50;46.33;;;;;;;0.13;100.00;101221.25;5100296;28;20452;-78
2024/01/14 06:47:14;;;;;;;81.18;46.67;;;;;;;0.15;100.00;101219.47;5092835;28;20023;-78
2024/01/14 06:49:40;;;;;;;77.30;45.72;;;;;;;0.16;100.00;101228.94;5104970;28;20024;-78
2024/01/14 06:52:05;;;;;;;78.03;46.40;;;;;;;0.18;100.00;101219.41;5101375;28;20090;-85
2024/01/14 06:54:30;;;;;;;80.60;47.00;;;;;;;0.15;100.00;101216.88;5098893;28;20395;-85
2024/01/14 06:56:56;;;;;;;73.55;45.72;;;;;;;0.15;100.00;101217.75;5105628;28;20031;-78
2024/01/14 06:59:21;;;;;;;76.32;46.50;;;;;;;0.14;100.00;101212.59;5109943;28;20039;-79
2024/01/14 07:01:48;;;;;;;80.05;47.90;;;;;;;0.12;100.00;101209.22;5102003;28;20039;-78
2024/01/14 07:04:13;;;;;;;77.15;45.95;;;;;;;0.09;100.00;101204.13;5091520;28;20024;-79
2024/01/14 07:06:42;;;;;;;79.47;48.83;;;;;;;0.09;100.00;101204.13;5081600;28;20030;-78
2024/01/14 07:09:10;;;;;;;76.78;46.75;;;;;;;0.08;100.00;101207.59;5109285;28;20171;-78
2024/01/14 07:11:35;;;;;;;80.30;46.50;;;;;;;0.05;100.00;101203.34;5093565;28;20032;-78
2024/01/14 07:14:01;;;;;;;87.78;49.80;;;;;;;0.03;100.00;101214.63;5087214;28;20625;-78
2024/01/14 07:16:26;;;;;;;85.10;49.00;;;;;;;0.05;100.00;101205.94;5087505;28;20032;-78
2024/01/14 07:18:52;;;;;;;83.55;49.15;;;;;;;0.03;100.00;101209.44;5086839;28;20040;-78
2024/01/14 07:21:21;;;;;;;81.00;48.17;;;;;;;0.07;100.00;101203.31;5087755;28;20035;-79
2024/01/14 07:23:46;;;;;;;85.18;49.28;;;;;;;0.03;100.00;101207.72;5086922;28;20048;-78
2024/01/14 07:26:14;;;;;;;92.00;50.75;;;;;;;0.05;100.00;101212.84;5089155;28;20059;-78
2024/01/14 07:28:40;;;;;;;88.32;50.22;;;;;;;0.03;100.00;101205.13;5084389;28;20020;-78
2024/01/14 07:31:05;;;;;;;87.78;51.08;;;;;;;0.05;100.00;101205.06;5088446;28;20047;-78
2024/01/14 07:33:30;;;;;;;91.15;50.75;;;;;;;0.04;100.00;101201.63;5089846;28;20082;-78
2024/01/14 07:35:56;;;;;;;87.85;50.72;;;;;;;0.04;100.00;101205.97;5089308;28;20532;-78
2024/01/14 07:38:21;;;;;;;82.72;48.50;;;;;;;0.04;100.00;101198.22;5091329;28;20032;-79
2024/01/14 07:40:46;;;;;;;87.95;49.63;;;;;;;0.02;100.00;101203.41;5110310;28;20110;-78
2024/01/14 07:43:12;;;;;;;90.43;51.92;;;;;;;0.01;100.00;101201.72;5109575;28;20388;-79
2024/01/14 07:45:37;;;;;;;86.95;49.78;;;;;;;-0.03;100.00;101188.00;5107825;28;20027;-79
2024/01/14 07:48:03;;;;;;;84.93;48.85;;;;;;;-0.02;100.00;101192.28;5091610;28;20039;-79
2024/01/14 07:50:28;;;;;;;84.57;49.90;;;;;;;-0.02;100.00;101202.63;5096771;28;20095;-78
2024/01/14 07:52:53;;;;;;;84.63;48.42;;;;;;;0.01;100.00;101206.03;5107237;28;20039;-78
2024/01/14 07:55:19;;;;;;;80.80;47.78;;;;;;;0.03;100.00;101193.91;5110559;28;20034;-78
2024/01/14 07:57:44;;;;;;;81.55;47.67;;;;;;;0.05;100.00;101197.31;5090621;28;20034;-78
2024/01/14 08:00:10;;;;;;;76.93;44.95;;;;;;;0.04;100.00;101195.63;5102588;28;20391;-79
2024/01/14 08:02:35;;;;;;;73.03;44.72;;;;;;;0.05;100.00;101192.16;5090078;28;20028;-79
2024/01/14 08:05:01;;;;;;;77.07;45.53;;;;;;;0.04;100.00;101196.47;5103299;28;20404;-78
2024/01/14 08:07:26;;;;;;;71.60;44.00;;;;;;;0.05;100.00;101192.16;5093518;28;20445;-78
2024/01/14 08:09:52;;;;;;;76.47;44.65;;;;;;;0.06;100.00;101193.84;5108316;28;20016;-78
2024/01/14 08:12:17;;;;;;;73.05;44.13;;;;;;;0.07;100.00;101191.22;5106742;28;20031;-78
2024/01/14 08:14:42;;;;;;;72.78;43.58;;;;;;;0.08;100.00;101189.47;5104142;28;20111;-78
2024/01/14 08:17:08;;;;;;;73.47;43.17;;;;;;;0.07;100.00;101190.38;5089220;28;20023;-78
2024/01/14 08:19:33;;;;;;;72.28;44.58;;;;;;;0.12;100.00;101188.50;5092101;28;20069;-78
2024/01/14 08:21:58;;;;;;;70.28;43.10;;;;;;;0.12;100.00;101191.09;5090692;28;20035;-79
2024/01/14 08:24:24;;;;;;;70.25;43.92;;;;;;;0.13;100.00;101190.22;5091168;28;20027;-78
2024/01/14 08:26:49;;;;;;;70.63;43.58;;;;;;;0.14;100.00;101191.91;5092709;28;20039;-78
2024/01/14 08:29:15;;;;;;;72.53;45.22;;;;;;;0.15;100.00;101189.28;5091812;28;20030;-78
2024/01/14 08:31:41;;;;;;;73.35;44.92;;;;;;;0.16;100.00;101190.13;5109992;28;20024;-79
2024/01/14 08:34:09;;;;;;;73.07;43.60;;;;;;;0.17;100.00;101199.59;5099925;28;20106;-79
2024/01/14 08:36:36;;;;;;;72.55;43.83;;;;;;;0.18;100.00;101196.09;5090597;28;20032;-78
2024/01/14 08:39:02;;;;;;;77.53;45.83;;;;;;;0.22;100.00;101190.81;5091505;28;20113;-78
2024/01/14 08:41:30;;;;;;;76.13;45.50;;;;;;;0.23;100.00;101197.69;5097043;28;20430;-78
2024/01/14 08:43:56;;;;;;;75.22;45.15;;;;;;;0.24;100.00;101191.63;5089357;28;20032;-78
2024/01/14 08:46:23;;;;;;;74.43;45.90;;;;;;;0.26;100.00;101186.41;5094142;28;20527;-78
2024/01/14 08:48:48;;;;;;;73.25;44.63;;;;;;;0.26;100.00;101178.66;5108911;28;20034;-80
2024/01/14 08:51:13;;;;;;;75.82;46.03;;;;;;;0.29;100.00;101183.75;5103264;28;20379;-77
2024/01/14 08:53:39;;;;;;;75.93;45.67;;;;;;;0.29;100.00;101186.31;5109912;28;20112;-78
2024/01/14 08:56:05;;;;;;;74.70;45.28;;;;;;;0.30;100.00;101180.25;5099405;28;20062;-78
2024/01/14 08:58:31;;;;;;;76.35;44.90;;;;;;;0.28;100.00;101180.31;5099137;28;20429;-77
2024/01/14 09:00:56;;;;;;;71.85;43.17;;;;;;;0.31;100.00;101189.72;5100971;28;20113;-78
2024/01/14 09:03:21;;;;;;;68.82;43.80;;;;;;;0.30;100.00;101182.84;5081723;28;20032;-78
2024/01/14 09:05:49;;;;;;;67.95;42.95;;;;;;;0.28;100.00;101187.22;5088305;28;20580;-78
2024/01/14 09:08:16;;;;;;;69.72;43.70;;;;;;;0.28;100.00;101180.31;5090523;28;20697;-78
2024/01/14 09:10:42;;;;;;;71.13;44.20;;;;;;;0.29;100.00;101181.16;5107604;28;20544;-78
2024/01/14 09:13:07;;;;;;;70.93;43.80;;;;;;;0.29;100.00;101176.81;5107998;28;20031;-78
2024/01/14 09:15:33;;;;;;;74.72;45.72;;;;;;;0.28;100.00;101175.13;5098029;28;20040;-78
2024/01/14 09:17:59;;;;;;;71.68;44.30;;;;;;;0.31;100.00;101174.19;5087594;28;20020;-77
2024/01/14 09:20:24;;;;;;;69.35;43.35;;;;;;;0.29;100.00;101170.81;5088236;28;20016;-78
2024/01/14 09:22:49;;;;;;;75.10;45.90;;;;;;;0.29;100.00;101166.47;5087301;28;20968;-78
2024/01/14 09:25:15;;;;;;;79.15;47.08;;;;;;;0.31;100.00;101169.03;5088545;28;20444;-78
2024/01/14 09:27:40;;;;;;;81.10;47.75;;;;;;;0.30;100.00;101162.16;5087039;28;20099;-78
2024/01/14 09:30:07;;;;;;;76.13;47.10;;;;;;;0.30;100.00;101165.59;5086143;28;20032;-78
2024/01/14 09:32:33;;;;;;;81.93;48.10;;;;;;;0.32;100.00;101156.03;5099342;28;20107;-77
2024/01/14 09:34:58;;;;;;;78.00;47.85;;;;;;;0.33;100.00;101162.06;5107778;28;20099;-78
2024/01/14 09:37:23;;;;;;;76.22;48.08;;;;;;;0.35;100.00;101160.28;5094960;28;20028;-84
2024/01/14 09:39:49;;;;;;;81.15;49.15;;;;;;;0.36;100.00;101149.03;5102267;28;20022;-84
2024/01/14 09:42:34;;;;;;;76.45;47.33;;;;;;;0.40;100.00;101152.38;5107919;28;20028;-85
2024/01/14 09:45:01;;;;;;;82.38;48.85;;;;;;;0.39;100.00;101148.09;5107281;28;20023;-84
2024/01/14 09:47:27;;;;;;;79.28;47.67;;;;;;;0.43;100.00;101152.34;5109672;28;20082;-84
2024/01/14 09:49:58;;;;;;;81.60;47.42;;;;;;;0.44;100.00;101154.88;5105719;28;20094;-85
2024/01/14 09:52:24;;;;;;;76.88;47.85;;;;;;;0.47;100.00;101148.78;5109476;28;20487;-85
2024/01/14 09:54:50;;;;;;;76.60;48.88;;;;;;;0.50;100.00;101146.09;5109040;28;20024;-85
2024/01/14 09:57:18;;;;;;;75.43;46.75;;;;;;;0.51;100.00;101148.63;5091093;28;20402;-85
2024/01/14 09:59:44;;;;;;;79.55;48.63;;;;;;;0.53;100.00;101141.69;5108949;28;20031;-85
2024/01/14 10:02:12;;;;;;;75.70;46.85;;;;;;;0.56;100.00;101148.50;5088826;28;20067;-85
2024/01/14 10:04:48;;;;;;;75.53;46.63;;;;;;;0.55;100.00;101147.66;5091345;28;20027;-85
2024/01/14 10:07:14;;;;;;;76.28;46.20;;;;;;;0.59;100.00;101149.28;5075180;28;20475;-85
2024/01/14 10:09:41;;;;;;;74.45;47.10;;;;;;;0.57;100.00;101145.88;5108065;28;20019;-85
2024/01/14 10:12:10;;;;;;;71.68;46.17;;;;;;;0.60;100.00;101144.94;5108132;28;20027;-83
2024/01/14 10:14:36;;;;;;;74.43;46.35;;;;;;;0.62;100.00;101146.59;5085173;28;20373;-83
2024/01/14 10:17:02;;;;;;;71.72;44.00;;;;;;;0.65;100.00;101152.56;5092357;28;20070;-82
2024/01/14 10:19:29;;;;;;;70.28;45.22;;;;;;;0.67;100.00;101141.28;5094832;28;20024;-82
2024/01/14 10:21:55;;;;;;;66.75;42.92;;;;;;;0.61;100.00;101131.94;5092101;28;20107;-82
2024/01/14 10:24:21;;;;;;;68.13;42.75;;;;;;;0.66;100.00;101128.38;5093602;28;20039;-82
2024/01/14 10:26:51;;;;;;;63.25;42.35;;;;;;;0.69;100.00;101128.28;5092571;28;20024;-80
2024/01/14 10:29:17;;;;;;;61.83;41.28;;;;;;;0.70;100.00;101124.81;5111556;28;20012;-80
2024/01/14 10:31:43;;;;;;;62.65;40.88;;;;;;;0.64;100.00;101131.00;5111057;27;20027;-78
2024/01/14 10:34:08;;;;;;;59.72;40.17;;;;;;;0.66;100.00;101111.09;5105280;28;20039;-79
2024/01/14 10:36:34;;;;;;;63.17;41.13;;;;;;;0.63;100.00;101109.44;5087536;28;20076;-79
2024/01/14 10:38:59;;;;;;;60.20;41.40;;;;;;;0.62;100.00;101107.75;5082602;28;20019;-79
2024/01/14 10:41:25;;;;;;;62.55;41.67;;;;;;;0.61;100.00;101103.47;5106973;28;20024;-79
2024/01/14 10:43:54;;;;;;;62.38;41.25;;;;;;;0.61;100.00;101100.88;5107119;28;20027;-79
2024/01/14 10:46:22;;;;;;;59.47;40.25;;;;;;;0.61;100.00;101108.66;5083894;28;20031;-81
2024/01/14 10:49:04;;;;;;;66.38;42.00;;;;;;;0.65;100.00;101095.63;5109661;28;20444;-81
2024/01/14 10:51:31;;;;;;;66.00;42.33;;;;;;;0.61;100.00;101087.09;5110857;28;20106;-79
2024/01/14 10:54:15;;;;;;;63.80;41.17;;;;;;;0.62;100.00;101086.19;5109365;28;20039;-79
2024/01/14 10:56:48;;;;;;;63.67;41.85;;;;;;;0.60;100.00;101088.84;5110264;28;20028;-79
2024/01/14 10:59:14;;;;;;;;;;;;;;;0.68;100.00;101077.41;5094105;28;20027;-79
2024/01/14 11:01:48;;;;;;;65.43;42.60;;;;;;;0.50;100.00;101077.06;5096455;28;19950;-79